createdAt,value
2023-05-06T00:04:26.864Z,23.56
2023-05-06T00:09:31.062Z,23.56
2023-05-06T00:14:33.881Z,23.55
2023-05-06T00:19:36.720Z,23.54
2023-05-06T00:24:41.004Z,23.53
2023-05-06T00:29:43.885Z,23.52
2023-05-06T00:34:47.028Z,23.53
2023-05-06T00:39:51.170Z,23.51
2023-05-06T00:44:53.981Z,23.51
2023-05-06T00:49:57.329Z,23.50
2023-05-06T00:55:01.525Z,23.49
2023-05-06T01:00:07.178Z,23.49
2023-05-06T01:05:12.244Z,23.49
2023-05-06T01:10:22.504Z,23.49
2023-05-06T01:15:30.356Z,23.49
2023-05-06T01:20:34.329Z,23.49
2023-05-06T01:25:41.676Z,23.48
2023-05-06T01:30:50.836Z,23.47
2023-05-06T01:35:56.838Z,23.47
2023-05-06T01:41:02.515Z,23.46
2023-05-06T01:46:06.447Z,23.46
2023-05-06T01:51:09.457Z,23.45
2023-05-06T01:56:14.128Z,23.45
2023-05-06T02:01:17.889Z,23.43
2023-05-06T02:06:20.720Z,23.43
2023-05-06T02:11:24.894Z,23.41
2023-05-06T02:16:29.558Z,23.42
2023-05-06T02:21:33.064Z,23.41
2023-05-06T02:26:37.294Z,23.40
2023-05-06T02:31:40.205Z,23.39
2023-05-06T02:36:43.092Z,23.39
2023-05-06T02:41:47.334Z,23.38
2023-05-06T02:46:50.171Z,23.37
2023-05-06T02:51:53.002Z,23.37
2023-05-06T02:57:00.061Z,23.36
2023-05-06T03:02:03.076Z,23.36
2023-05-06T03:07:05.913Z,23.35
2023-05-06T03:12:10.050Z,23.35
2023-05-06T03:17:12.927Z,23.34
2023-05-06T03:22:15.710Z,23.35
2023-05-06T03:27:20.510Z,23.35
2023-05-06T03:32:23.335Z,23.33
2023-05-06T03:37:26.422Z,23.32
2023-05-06T03:42:31.071Z,23.33
2023-05-06T03:47:34.024Z,23.31
2023-05-06T03:52:36.941Z,23.31
2023-05-06T03:57:41.164Z,23.31
2023-05-06T04:02:44.111Z,23.30
2023-05-06T04:07:46.922Z,23.30
2023-05-06T04:12:51.175Z,23.30
2023-05-06T04:17:54.046Z,23.29
2023-05-06T04:22:56.824Z,23.29
2023-05-06T04:28:01.014Z,23.29
2023-05-06T04:33:04.043Z,23.29
2023-05-06T04:38:07.180Z,23.29
2023-05-06T04:43:12.069Z,23.29
2023-05-06T04:48:16.217Z,23.28
2023-05-06T04:53:19.058Z,23.29
2023-05-06T04:58:23.240Z,23.30
2023-05-06T05:03:26.216Z,23.30
2023-05-06T05:08:29.157Z,23.31
2023-05-06T05:13:33.398Z,23.32
2023-05-06T05:18:36.247Z,23.32
2023-05-06T05:23:39.085Z,23.33
2023-05-06T05:28:44.394Z,23.34
2023-05-06T05:33:47.291Z,23.35
2023-05-06T05:38:50.249Z,23.35
2023-05-06T05:43:54.450Z,23.35
2023-05-06T05:48:57.283Z,23.36
2023-05-06T05:54:00.162Z,23.36
2023-05-06T05:59:04.536Z,23.36
2023-05-06T06:04:07.498Z,23.38
2023-05-06T06:09:11.105Z,23.38
2023-05-06T06:14:15.350Z,23.38
2023-05-06T06:19:18.159Z,23.39
2023-05-06T06:24:21.075Z,23.40
2023-05-06T06:29:25.376Z,23.40
2023-05-06T06:34:28.245Z,23.39
2023-05-06T06:39:31.018Z,23.40
2023-05-06T06:44:35.707Z,23.42
2023-05-06T06:49:41.187Z,23.43
2023-05-06T06:54:44.117Z,23.44
2023-05-06T06:59:50.389Z,23.45
2023-05-06T07:04:53.197Z,23.47
2023-05-06T07:09:56.079Z,23.46
2023-05-06T07:15:01.548Z,23.48
2023-05-06T07:20:04.863Z,23.47
2023-05-06T07:25:08.808Z,23.49
2023-05-06T07:30:13.847Z,23.50
2023-05-06T07:35:16.678Z,23.51
2023-05-06T07:40:19.469Z,23.51
2023-05-06T07:45:25.122Z,23.53
2023-05-06T07:50:27.922Z,23.54
2023-05-06T07:55:32.014Z,23.55
2023-05-06T08:00:36.928Z,23.56
2023-05-06T08:05:39.726Z,23.56
2023-05-06T08:10:42.549Z,23.57
2023-05-06T08:15:46.894Z,23.58
2023-05-06T08:20:49.766Z,23.58
2023-05-06T08:25:52.583Z,23.60
2023-05-06T08:30:56.765Z,23.62
2023-05-06T08:35:59.752Z,23.64
2023-05-06T08:41:10.652Z,23.63
2023-05-06T08:46:15.236Z,23.65
2023-05-06T08:51:18.916Z,23.66
2023-05-06T08:56:23.102Z,23.67
2023-05-06T09:01:28.460Z,23.65
2023-05-06T09:06:31.503Z,23.66
2023-05-06T09:11:34.358Z,23.67
2023-05-06T09:16:39.195Z,23.69
2023-05-06T09:21:43.935Z,23.73
2023-05-06T09:26:48.233Z,23.76
2023-05-06T09:31:56.442Z,23.75
2023-05-06T09:36:59.306Z,23.77
2023-05-06T09:42:02.252Z,23.78
2023-05-06T09:47:07.055Z,23.80
2023-05-06T09:52:10.083Z,23.83
2023-05-06T09:57:14.003Z,23.81
2023-05-06T10:02:18.581Z,23.83
2023-05-06T10:07:23.614Z,23.86
2023-05-06T10:12:26.561Z,23.85
2023-05-06T10:17:32.749Z,23.88
2023-05-06T10:22:44.973Z,23.91
2023-05-06T10:27:49.724Z,23.91
2023-05-06T10:32:57.884Z,23.95
2023-05-06T10:38:01.773Z,23.95
2023-05-06T10:43:27.388Z,23.96
2023-05-06T10:48:32.312Z,23.96
2023-05-06T10:53:59.817Z,23.97
2023-05-06T10:59:06.928Z,23.99
2023-05-06T11:04:12.695Z,24.01
2023-05-06T11:09:19.903Z,24.04
2023-05-06T11:14:27.287Z,24.03
2023-05-06T11:19:32.122Z,24.03
2023-05-06T11:24:40.184Z,24.06
2023-05-06T11:29:44.296Z,24.08
2023-05-06T11:34:48.432Z,24.10
2023-05-06T11:39:51.257Z,24.13
2023-05-06T11:44:55.916Z,24.12
2023-05-06T11:50:06.385Z,24.13
2023-05-06T11:55:10.936Z,24.15
2023-05-06T12:00:14.889Z,24.17
2023-05-06T12:05:23.608Z,24.17
2023-05-06T12:10:26.493Z,24.19
2023-05-06T12:15:29.759Z,24.21
2023-05-06T12:20:33.911Z,24.22
2023-05-06T12:25:36.747Z,24.22
2023-05-06T12:30:39.598Z,24.26
2023-05-06T12:35:43.751Z,24.25
2023-05-06T12:40:54.049Z,24.27
2023-05-06T12:46:07.147Z,24.31
2023-05-06T12:51:21.347Z,24.31
2023-05-06T12:56:24.360Z,24.36
2023-05-06T13:01:27.428Z,24.42
2023-05-06T13:06:33.017Z,24.40
2023-05-06T13:11:35.870Z,24.40
2023-05-06T13:16:39.931Z,24.40
2023-05-06T13:21:44.258Z,24.37
2023-05-06T13:26:47.087Z,24.34
2023-05-06T13:31:49.884Z,24.30
2023-05-06T13:36:54.638Z,24.34
2023-05-06T13:41:57.490Z,24.41
2023-05-06T13:47:00.448Z,24.44
2023-05-06T13:52:05.774Z,24.56
2023-05-06T13:57:10.803Z,24.63
2023-05-06T14:02:13.790Z,24.72
2023-05-06T14:07:18.249Z,24.82
2023-05-06T14:12:22.853Z,24.92
2023-05-06T14:17:25.870Z,25.02
2023-05-06T14:22:30.155Z,25.11
2023-05-06T14:27:32.968Z,25.22
2023-05-06T14:32:35.850Z,25.31
2023-05-06T14:37:40.088Z,25.46
2023-05-06T14:42:42.909Z,25.54
2023-05-06T14:47:45.992Z,25.66
2023-05-06T14:52:50.533Z,25.80
2023-05-06T14:57:53.800Z,25.93
2023-05-06T15:02:56.677Z,26.09
2023-05-06T15:08:00.891Z,26.25
2023-05-06T15:13:03.783Z,26.41
2023-05-06T15:18:06.779Z,26.67
2023-05-06T15:23:10.998Z,27.95
2023-05-06T15:28:13.837Z,27.91
2023-05-06T15:33:16.675Z,27.75
2023-05-06T15:38:20.943Z,28.07
2023-05-06T15:43:24.637Z,28.54
2023-05-06T15:48:29.308Z,28.12
2023-05-06T15:53:33.497Z,28.48
2023-05-06T15:58:36.728Z,28.05
2023-05-06T16:03:41.138Z,27.67
2023-05-06T16:08:45.509Z,27.22
2023-05-06T16:13:48.489Z,27.01
2023-05-06T16:18:51.560Z,27.08
2023-05-06T16:23:55.741Z,26.84
2023-05-06T16:28:59.506Z,26.60
2023-05-06T16:34:02.375Z,26.68
2023-05-06T16:39:08.135Z,28.14
2023-05-06T16:44:10.918Z,27.30
2023-05-06T16:49:13.757Z,27.19
2023-05-06T16:54:17.953Z,26.72
2023-05-06T16:59:22.397Z,26.60
2023-05-06T17:04:25.927Z,26.80
2023-05-06T17:09:30.156Z,27.09
2023-05-06T17:14:32.983Z,26.46
2023-05-06T17:19:35.834Z,26.21
2023-05-06T17:24:39.986Z,26.06
2023-05-06T17:29:42.845Z,25.94
2023-05-06T17:34:46.938Z,25.81
2023-05-06T17:39:52.321Z,25.75
2023-05-06T17:44:55.216Z,25.72
2023-05-06T17:49:58.028Z,25.65
2023-05-06T17:55:11.797Z,25.63
2023-05-06T18:00:19.332Z,25.56
2023-05-06T18:05:24.566Z,25.48
2023-05-06T18:10:29.440Z,25.33
2023-05-06T18:15:32.966Z,25.25
2023-05-06T18:20:35.816Z,25.20
2023-05-06T18:25:39.966Z,25.17
2023-05-06T18:30:42.745Z,25.13
2023-05-06T18:35:45.668Z,25.09
2023-05-06T18:40:50.247Z,25.04
2023-05-06T18:45:53.228Z,25.01
2023-05-06T18:50:56.101Z,24.98
2023-05-06T18:56:00.305Z,24.92
2023-05-06T19:01:03.184Z,24.92
2023-05-06T19:06:09.167Z,24.88
2023-05-06T19:11:18.090Z,24.87
2023-05-06T19:16:21.722Z,24.84
2023-05-06T19:21:24.601Z,24.82
2023-05-06T19:26:28.867Z,24.77
2023-05-06T19:31:31.767Z,24.75
2023-05-06T19:36:34.660Z,24.74
2023-05-06T19:41:38.840Z,24.69
2023-05-06T19:46:41.788Z,24.67
2023-05-06T19:51:44.825Z,24.65
2023-05-06T19:56:49.185Z,24.64
2023-05-06T20:01:53.217Z,24.63
2023-05-06T20:06:57.929Z,24.62
2023-05-06T20:12:03.342Z,24.61
2023-05-06T20:17:06.242Z,24.60
2023-05-06T20:22:09.312Z,24.58
2023-05-06T20:27:13.544Z,24.58
2023-05-06T20:32:16.340Z,24.57
2023-05-06T20:37:20.006Z,24.56
2023-05-06T20:42:24.209Z,24.53
2023-05-06T20:47:27.131Z,24.52
2023-05-06T20:52:30.027Z,24.51
2023-05-06T20:57:34.213Z,24.51
2023-05-06T21:02:41.401Z,24.50
2023-05-06T21:07:44.867Z,24.49
2023-05-06T21:12:49.541Z,24.47
2023-05-06T21:17:52.448Z,24.47
2023-05-06T21:22:56.375Z,24.44
2023-05-06T21:28:04.925Z,24.43
2023-05-06T21:33:10.906Z,24.42
2023-05-06T21:38:13.859Z,24.40
2023-05-06T21:43:18.262Z,24.38
2023-05-06T21:48:21.369Z,24.37
2023-05-06T21:53:24.220Z,24.37
2023-05-06T21:58:28.404Z,24.35
2023-05-06T22:03:31.386Z,24.34
2023-05-06T22:08:34.262Z,24.33
2023-05-06T22:13:38.390Z,24.30
2023-05-06T22:18:42.644Z,24.30
2023-05-06T22:23:45.443Z,24.29
2023-05-06T22:28:49.856Z,24.28
2023-05-06T22:33:55.444Z,24.27
2023-05-06T22:38:58.502Z,24.25
2023-05-06T22:44:02.841Z,24.25
2023-05-06T22:49:05.706Z,24.24
2023-05-06T22:54:08.592Z,24.24
2023-05-06T22:59:13.299Z,24.21
2023-05-06T23:04:16.299Z,24.20
2023-05-06T23:09:19.256Z,24.20
2023-05-06T23:14:23.742Z,24.18
2023-05-06T23:19:26.892Z,24.18
2023-05-06T23:24:29.725Z,24.17
2023-05-06T23:29:33.869Z,24.16
2023-05-06T23:34:36.674Z,24.16
2023-05-06T23:39:40.323Z,24.15
2023-05-06T23:44:44.547Z,24.14
2023-05-06T23:49:47.340Z,24.12
2023-05-06T23:54:50.188Z,24.12
2023-05-06T23:59:54.393Z,24.12
